sensor_id;sensor_type;location;lat;lon;timestamp;P1;durP1;ratioP1;P2;durP2;ratioP2
35602;SDS011;21725;50.836;4.368;2023-02-01T00:00:34;24.15;;;11.93;;
35602;SDS011;21725;50.836;4.368;2023-02-01T00:03:35;28.13;;;13.82;;
35602;SDS011;21725;50.836;4.368;2023-02-01T00:06:36;36.40;;;15.13;;
35602;SDS011;21725;50.836;4.368;2023-02-01T00:09:37;37.00;;;13.60;;
35602;SDS011;21725;50.836;4.368;2023-02-01T00:12:38;29.05;;;12.02;;
35602;SDS011;21725;50.836;4.368;2023-02-01T00:15:39;36.63;;;14.07;;
35602;SDS011;21725;50.836;4.368;2023-02-01T00:18:39;25.30;;;12.52;;
35602;SDS011;21725;50.836;4.368;2023-02-01T00:21:41;22.35;;;12.23;;
35602;SDS011;21725;50.836;4.368;2023-02-01T00:24:42;27.77;;;11.98;;
35602;SDS011;21725;50.836;4.368;2023-02-01T00:27:42;23.52;;;11.95;;
35602;SDS011;21725;50.836;4.368;2023-02-01T00:30:43;32.53;;;14.10;;
35602;SDS011;21725;50.836;4.368;2023-02-01T00:33:46;25.33;;;12.25;;
35602;SDS011;21725;50.836;4.368;2023-02-01T00:36:48;22.60;;;11.43;;
35602;SDS011;21725;50.836;4.368;2023-02-01T00:39:48;35.58;;;12.10;;
35602;SDS011;21725;50.836;4.368;2023-02-01T00:42:50;26.77;;;12.10;;
35602;SDS011;21725;50.836;4.368;2023-02-01T00:45:51;24.20;;;11.40;;
35602;SDS011;21725;50.836;4.368;2023-02-01T00:48:51;26.33;;;11.90;;
35602;SDS011;21725;50.836;4.368;2023-02-01T00:51:52;25.60;;;12.15;;
35602;SDS011;21725;50.836;4.368;2023-02-01T00:54:53;28.48;;;10.40;;
35602;SDS011;21725;50.836;4.368;2023-02-01T00:57:54;23.95;;;11.45;;
35602;SDS011;21725;50.836;4.368;2023-02-01T01:01:04;20.90;;;9.65;;
35602;SDS011;21725;50.836;4.368;2023-02-01T01:04:07;24.33;;;11.70;;
35602;SDS011;21725;50.836;4.368;2023-02-01T01:07:08;22.67;;;9.63;;
35602;SDS011;21725;50.836;4.368;2023-02-01T01:10:10;25.13;;;8.90;;
35602;SDS011;21725;50.836;4.368;2023-02-01T01:13:11;18.02;;;9.15;;
35602;SDS011;21725;50.836;4.368;2023-02-01T01:16:12;26.45;;;8.35;;
35602;SDS011;21725;50.836;4.368;2023-02-01T01:19:12;27.55;;;7.97;;
35602;SDS011;21725;50.836;4.368;2023-02-01T01:22:15;24.02;;;7.60;;
35602;SDS011;21725;50.836;4.368;2023-02-01T01:25:16;18.20;;;6.72;;
35602;SDS011;21725;50.836;4.368;2023-02-01T01:28:17;17.98;;;6.57;;
35602;SDS011;21725;50.836;4.368;2023-02-01T01:31:18;16.90;;;7.22;;
35602;SDS011;21725;50.836;4.368;2023-02-01T01:34:20;26.35;;;8.02;;
35602;SDS011;21725;50.836;4.368;2023-02-01T01:37:21;26.95;;;6.80;;
35602;SDS011;21725;50.836;4.368;2023-02-01T01:40:22;22.98;;;5.97;;
35602;SDS011;21725;50.836;4.368;2023-02-01T01:43:22;18.73;;;5.70;;
35602;SDS011;21725;50.836;4.368;2023-02-01T01:46:24;27.88;;;6.30;;
35602;SDS011;21725;50.836;4.368;2023-02-01T01:49:25;22.83;;;7.18;;
35602;SDS011;21725;50.836;4.368;2023-02-01T01:52:27;22.23;;;6.47;;
35602;SDS011;21725;50.836;4.368;2023-02-01T01:55:29;18.63;;;5.85;;
35602;SDS011;21725;50.836;4.368;2023-02-01T01:58:33;17.02;;;6.15;;
35602;SDS011;21725;50.836;4.368;2023-02-01T02:01:37;17.23;;;4.72;;
35602;SDS011;21725;50.836;4.368;2023-02-01T02:04:37;18.02;;;4.65;;
35602;SDS011;21725;50.836;4.368;2023-02-01T02:07:40;19.83;;;5.43;;
35602;SDS011;21725;50.836;4.368;2023-02-01T02:10:46;19.83;;;6.25;;
35602;SDS011;21725;50.836;4.368;2023-02-01T02:14:01;24.40;;;5.40;;
35602;SDS011;21725;50.836;4.368;2023-02-01T02:20:27;18.83;;;5.22;;
35602;SDS011;21725;50.836;4.368;2023-02-01T02:46:32;19.93;;;5.40;;
35602;SDS011;21725;50.836;4.368;2023-02-01T02:53:39;18.00;;;5.20;;
35602;SDS011;21725;50.836;4.368;2023-02-01T02:57:07;19.02;;;4.88;;
35602;SDS011;21725;50.836;4.368;2023-02-01T03:00:30;27.45;;;6.65;;
35602;SDS011;21725;50.836;4.368;2023-02-01T03:03:51;19.40;;;4.25;;
35602;SDS011;21725;50.836;4.368;2023-02-01T03:10:47;24.10;;;7.78;;
35602;SDS011;21725;50.836;4.368;2023-02-01T03:14:01;17.00;;;6.00;;
35602;SDS011;21725;50.836;4.368;2023-02-01T03:17:08;22.05;;;5.18;;
35602;SDS011;21725;50.836;4.368;2023-02-01T03:20:16;21.15;;;5.38;;
35602;SDS011;21725;50.836;4.368;2023-02-01T03:23:20;24.05;;;5.25;;
35602;SDS011;21725;50.836;4.368;2023-02-01T03:26:26;17.88;;;5.18;;
35602;SDS011;21725;50.836;4.368;2023-02-01T03:29:33;23.63;;;4.97;;
35602;SDS011;21725;50.836;4.368;2023-02-01T03:32:47;18.42;;;4.88;;
35602;SDS011;21725;50.836;4.368;2023-02-01T03:36:09;21.13;;;5.10;;
35602;SDS011;21725;50.836;4.368;2023-02-01T03:42:43;17.58;;;5.93;;
35602;SDS011;21725;50.836;4.368;2023-02-01T03:45:53;22.33;;;5.38;;
35602;SDS011;21725;50.836;4.368;2023-02-01T03:49:01;26.60;;;5.15;;
35602;SDS011;21725;50.836;4.368;2023-02-01T03:52:44;13.85;;;5.38;;
35602;SDS011;21725;50.836;4.368;2023-02-01T03:55:49;18.80;;;4.72;;
35602;SDS011;21725;50.836;4.368;2023-02-01T03:58:51;29.48;;;7.45;;
35602;SDS011;21725;50.836;4.368;2023-02-01T04:01:58;16.98;;;4.07;;
35602;SDS011;21725;50.836;4.368;2023-02-01T04:05:02;22.88;;;5.53;;
35602;SDS011;21725;50.836;4.368;2023-02-01T04:08:04;14.48;;;5.40;;
35602;SDS011;21725;50.836;4.368;2023-02-01T04:11:08;18.92;;;4.18;;
35602;SDS011;21725;50.836;4.368;2023-02-01T04:14:09;21.45;;;4.70;;
35602;SDS011;21725;50.836;4.368;2023-02-01T04:17:13;28.30;;;6.05;;
35602;SDS011;21725;50.836;4.368;2023-02-01T04:20:14;14.23;;;4.28;;
35602;SDS011;21725;50.836;4.368;2023-02-01T04:23:15;25.67;;;5.95;;
35602;SDS011;21725;50.836;4.368;2023-02-01T04:26:16;18.17;;;5.13;;
35602;SDS011;21725;50.836;4.368;2023-02-01T04:29:19;21.40;;;6.40;;
35602;SDS011;21725;50.836;4.368;2023-02-01T04:32:20;17.80;;;5.15;;
35602;SDS011;21725;50.836;4.368;2023-02-01T04:35:20;26.67;;;6.03;;
35602;SDS011;21725;50.836;4.368;2023-02-01T04:38:21;17.33;;;4.68;;
35602;SDS011;21725;50.836;4.368;2023-02-01T04:41:22;17.92;;;4.82;;
35602;SDS011;21725;50.836;4.368;2023-02-01T04:44:23;22.67;;;5.95;;
35602;SDS011;21725;50.836;4.368;2023-02-01T04:47:24;20.55;;;5.07;;
35602;SDS011;21725;50.836;4.368;2023-02-01T04:50:25;24.23;;;6.28;;
35602;SDS011;21725;50.836;4.368;2023-02-01T04:53:29;33.20;;;7.60;;
35602;SDS011;21725;50.836;4.368;2023-02-01T04:56:29;21.27;;;5.13;;
35602;SDS011;21725;50.836;4.368;2023-02-01T04:59:30;19.38;;;5.28;;
35602;SDS011;21725;50.836;4.368;2023-02-01T05:35:27;17.65;;;5.03;;
35602;SDS011;21725;50.836;4.368;2023-02-01T05:38:28;21.25;;;4.70;;
35602;SDS011;21725;50.836;4.368;2023-02-01T05:41:32;23.92;;;5.93;;
35602;SDS011;21725;50.836;4.368;2023-02-01T05:44:33;20.02;;;4.70;;
35602;SDS011;21725;50.836;4.368;2023-02-01T05:47:34;17.90;;;4.70;;
35602;SDS011;21725;50.836;4.368;2023-02-01T05:50:37;18.60;;;5.40;;
35602;SDS011;21725;50.836;4.368;2023-02-01T05:53:37;19.98;;;4.82;;
35602;SDS011;21725;50.836;4.368;2023-02-01T05:56:38;16.92;;;5.35;;
35602;SDS011;21725;50.836;4.368;2023-02-01T05:59:40;18.70;;;4.93;;
35602;SDS011;21725;50.836;4.368;2023-02-01T06:02:41;24.08;;;5.55;;
35602;SDS011;21725;50.836;4.368;2023-02-01T06:05:46;23.55;;;5.75;;
35602;SDS011;21725;50.836;4.368;2023-02-01T06:08:47;23.02;;;5.05;;
35602;SDS011;21725;50.836;4.368;2023-02-01T06:11:50;16.63;;;6.25;;
35602;SDS011;21725;50.836;4.368;2023-02-01T06:14:51;12.13;;;3.42;;
35602;SDS011;21725;50.836;4.368;2023-02-01T06:17:52;25.60;;;6.03;;
35602;SDS011;21725;50.836;4.368;2023-02-01T06:20:54;29.17;;;7.22;;
35602;SDS011;21725;50.836;4.368;2023-02-01T06:23:55;25.55;;;6.93;;
35602;SDS011;21725;50.836;4.368;2023-02-01T06:26:57;20.58;;;4.68;;
35602;SDS011;21725;50.836;4.368;2023-02-01T06:29:58;24.02;;;5.75;;
35602;SDS011;21725;50.836;4.368;2023-02-01T06:32:59;17.67;;;5.68;;
35602;SDS011;21725;50.836;4.368;2023-02-01T06:36:00;16.92;;;4.75;;
35602;SDS011;21725;50.836;4.368;2023-02-01T06:39:03;19.42;;;4.88;;
35602;SDS011;21725;50.836;4.368;2023-02-01T06:42:04;25.55;;;5.30;;
35602;SDS011;21725;50.836;4.368;2023-02-01T06:45:05;22.52;;;5.60;;
35602;SDS011;21725;50.836;4.368;2023-02-01T06:48:12;15.52;;;4.88;;
35602;SDS011;21725;50.836;4.368;2023-02-01T06:51:22;30.15;;;5.93;;
35602;SDS011;21725;50.836;4.368;2023-02-01T06:54:24;21.08;;;6.20;;
35602;SDS011;21725;50.836;4.368;2023-02-01T06:57:26;28.88;;;5.75;;
35602;SDS011;21725;50.836;4.368;2023-02-01T07:00:30;21.02;;;5.65;;
35602;SDS011;21725;50.836;4.368;2023-02-01T07:03:34;23.92;;;5.07;;
35602;SDS011;21725;50.836;4.368;2023-02-01T07:06:35;18.67;;;5.20;;
35602;SDS011;21725;50.836;4.368;2023-02-01T07:09:36;30.08;;;6.93;;
35602;SDS011;21725;50.836;4.368;2023-02-01T07:12:37;38.30;;;8.55;;
35602;SDS011;21725;50.836;4.368;2023-02-01T07:15:37;20.35;;;4.90;;
35602;SDS011;21725;50.836;4.368;2023-02-01T07:18:38;22.52;;;5.75;;
35602;SDS011;21725;50.836;4.368;2023-02-01T07:21:39;29.25;;;7.72;;
35602;SDS011;21725;50.836;4.368;2023-02-01T07:24:40;18.45;;;4.63;;
35602;SDS011;21725;50.836;4.368;2023-02-01T07:27:41;27.80;;;6.90;;
35602;SDS011;21725;50.836;4.368;2023-02-01T07:30:42;33.00;;;6.55;;
35602;SDS011;21725;50.836;4.368;2023-02-01T07:33:42;26.23;;;6.20;;
35602;SDS011;21725;50.836;4.368;2023-02-01T07:36:43;25.08;;;6.40;;
35602;SDS011;21725;50.836;4.368;2023-02-01T07:39:44;32.38;;;7.20;;
35602;SDS011;21725;50.836;4.368;2023-02-01T07:42:45;28.85;;;5.70;;
35602;SDS011;21725;50.836;4.368;2023-02-01T07:45:52;22.67;;;6.03;;
35602;SDS011;21725;50.836;4.368;2023-02-01T07:48:54;27.05;;;6.43;;
35602;SDS011;21725;50.836;4.368;2023-02-01T07:51:55;25.13;;;7.45;;
35602;SDS011;21725;50.836;4.368;2023-02-01T07:54:55;31.17;;;6.13;;
35602;SDS011;21725;50.836;4.368;2023-02-01T07:57:57;25.83;;;5.57;;
35602;SDS011;21725;50.836;4.368;2023-02-01T08:00:58;18.98;;;6.38;;
35602;SDS011;21725;50.836;4.368;2023-02-01T08:04:17;19.20;;;6.32;;
35602;SDS011;21725;50.836;4.368;2023-02-01T08:07:18;25.02;;;8.65;;
35602;SDS011;21725;50.836;4.368;2023-02-01T08:10:19;46.63;;;19.15;;
35602;SDS011;21725;50.836;4.368;2023-02-01T08:13:20;23.85;;;7.38;;
35602;SDS011;21725;50.836;4.368;2023-02-01T08:16:21;33.10;;;7.88;;
35602;SDS011;21725;50.836;4.368;2023-02-01T08:19:23;21.88;;;8.63;;
35602;SDS011;21725;50.836;4.368;2023-02-01T08:22:24;24.38;;;7.18;;
35602;SDS011;21725;50.836;4.368;2023-02-01T08:25:24;19.80;;;6.90;;
35602;SDS011;21725;50.836;4.368;2023-02-01T08:28:25;27.02;;;7.05;;
35602;SDS011;21725;50.836;4.368;2023-02-01T08:31:27;31.02;;;7.43;;
35602;SDS011;21725;50.836;4.368;2023-02-01T08:34:29;20.27;;;7.03;;
35602;SDS011;21725;50.836;4.368;2023-02-01T08:37:29;25.73;;;6.90;;
35602;SDS011;21725;50.836;4.368;2023-02-01T08:40:31;27.65;;;7.25;;
35602;SDS011;21725;50.836;4.368;2023-02-01T08:43:31;26.08;;;7.28;;
35602;SDS011;21725;50.836;4.368;2023-02-01T08:46:32;24.48;;;5.32;;
35602;SDS011;21725;50.836;4.368;2023-02-01T08:49:33;24.60;;;6.78;;
35602;SDS011;21725;50.836;4.368;2023-02-01T08:52:34;19.10;;;5.40;;
35602;SDS011;21725;50.836;4.368;2023-02-01T08:55:45;20.90;;;6.32;;
35602;SDS011;21725;50.836;4.368;2023-02-01T08:58:46;25.42;;;7.45;;
35602;SDS011;21725;50.836;4.368;2023-02-01T09:01:47;25.27;;;6.60;;
35602;SDS011;21725;50.836;4.368;2023-02-01T09:04:48;20.08;;;5.60;;
35602;SDS011;21725;50.836;4.368;2023-02-01T09:07:49;25.30;;;6.25;;
35602;SDS011;21725;50.836;4.368;2023-02-01T09:10:49;22.40;;;6.53;;
35602;SDS011;21725;50.836;4.368;2023-02-01T09:13:50;27.73;;;6.35;;
35602;SDS011;21725;50.836;4.368;2023-02-01T09:16:51;23.50;;;6.22;;
35602;SDS011;21725;50.836;4.368;2023-02-01T09:19:52;21.88;;;6.18;;
35602;SDS011;21725;50.836;4.368;2023-02-01T09:22:54;20.42;;;6.60;;
35602;SDS011;21725;50.836;4.368;2023-02-01T09:25:58;24.45;;;7.82;;
35602;SDS011;21725;50.836;4.368;2023-02-01T09:29:00;19.60;;;5.88;;
35602;SDS011;21725;50.836;4.368;2023-02-01T09:32:03;22.05;;;6.22;;
35602;SDS011;21725;50.836;4.368;2023-02-01T09:35:05;22.65;;;6.40;;
35602;SDS011;21725;50.836;4.368;2023-02-01T09:38:09;22.05;;;6.85;;
35602;SDS011;21725;50.836;4.368;2023-02-01T09:47:53;23.70;;;6.35;;
35602;SDS011;21725;50.836;4.368;2023-02-01T09:50:56;22.85;;;6.28;;
35602;SDS011;21725;50.836;4.368;2023-02-01T09:57:28;25.52;;;5.88;;
35602;SDS011;21725;50.836;4.368;2023-02-01T10:00:55;13.80;;;5.20;;
35602;SDS011;21725;50.836;4.368;2023-02-01T10:04:01;18.38;;;5.18;;
35602;SDS011;21725;50.836;4.368;2023-02-01T10:13:47;19.55;;;6.03;;
35602;SDS011;21725;50.836;4.368;2023-02-01T10:20:28;17.17;;;5.43;;
35602;SDS011;21725;50.836;4.368;2023-02-01T10:33:24;14.70;;;6.03;;
35602;SDS011;21725;50.836;4.368;2023-02-01T10:36:32;20.83;;;5.40;;
35602;SDS011;21725;50.836;4.368;2023-02-01T10:39:40;20.98;;;5.72;;
35602;SDS011;21725;50.836;4.368;2023-02-01T10:42:41;27.77;;;6.20;;
35602;SDS011;21725;50.836;4.368;2023-02-01T10:45:43;21.75;;;6.03;;
35602;SDS011;21725;50.836;4.368;2023-02-01T10:48:43;26.80;;;7.18;;
35602;SDS011;21725;50.836;4.368;2023-02-01T10:51:47;15.63;;;5.05;;
35602;SDS011;21725;50.836;4.368;2023-02-01T10:54:51;14.27;;;4.93;;
35602;SDS011;21725;50.836;4.368;2023-02-01T10:57:56;12.05;;;3.80;;
35602;SDS011;21725;50.836;4.368;2023-02-01T11:33:07;11.80;;;3.70;;
35602;SDS011;21725;50.836;4.368;2023-02-01T11:36:20;18.55;;;4.75;;
35602;SDS011;21725;50.836;4.368;2023-02-01T11:39:26;21.65;;;5.22;;
35602;SDS011;21725;50.836;4.368;2023-02-01T11:42:31;18.05;;;4.15;;
35602;SDS011;21725;50.836;4.368;2023-02-01T11:45:33;13.98;;;3.80;;
35602;SDS011;21725;50.836;4.368;2023-02-01T11:48:34;23.95;;;6.57;;
35602;SDS011;21725;50.836;4.368;2023-02-01T11:55:25;14.80;;;3.47;;
35602;SDS011;21725;50.836;4.368;2023-02-01T11:58:42;17.15;;;5.38;;
35602;SDS011;21725;50.836;4.368;2023-02-01T12:12:16;37.88;;;4.45;;
35602;SDS011;21725;50.836;4.368;2023-02-01T12:21:51;21.98;;;5.53;;
35602;SDS011;21725;50.836;4.368;2023-02-01T12:34:54;12.98;;;4.50;;
35602;SDS011;21725;50.836;4.368;2023-02-01T12:41:50;13.00;;;3.92;;
35602;SDS011;21725;50.836;4.368;2023-02-01T12:45:26;8.60;;;2.70;;
35602;SDS011;21725;50.836;4.368;2023-02-01T12:48:35;28.25;;;5.78;;
35602;SDS011;21725;50.836;4.368;2023-02-01T12:51:54;12.05;;;4.30;;
35602;SDS011;21725;50.836;4.368;2023-02-01T12:55:23;15.23;;;4.85;;
35602;SDS011;21725;50.836;4.368;2023-02-01T13:01:43;19.80;;;3.95;;
35602;SDS011;21725;50.836;4.368;2023-02-01T13:11:18;12.57;;;2.97;;
35602;SDS011;21725;50.836;4.368;2023-02-01T13:14:37;15.38;;;4.32;;
35602;SDS011;21725;50.836;4.368;2023-02-01T13:18:01;15.23;;;5.03;;
35602;SDS011;21725;50.836;4.368;2023-02-01T13:21:10;12.95;;;4.35;;
35602;SDS011;21725;50.836;4.368;2023-02-01T13:24:21;7.93;;;3.42;;
35602;SDS011;21725;50.836;4.368;2023-02-01T13:27:33;8.25;;;3.55;;
35602;SDS011;21725;50.836;4.368;2023-02-01T13:30:57;13.18;;;3.30;;
35602;SDS011;21725;50.836;4.368;2023-02-01T13:44:32;8.60;;;2.53;;
35602;SDS011;21725;50.836;4.368;2023-02-01T13:47:40;11.00;;;3.22;;
35602;SDS011;21725;50.836;4.368;2023-02-01T13:50:43;7.22;;;3.05;;
35602;SDS011;21725;50.836;4.368;2023-02-01T13:53:49;10.82;;;3.28;;
35602;SDS011;21725;50.836;4.368;2023-02-01T13:56:53;11.88;;;3.42;;
35602;SDS011;21725;50.836;4.368;2023-02-01T13:59:57;13.00;;;3.15;;
35602;SDS011;21725;50.836;4.368;2023-02-01T14:03:42;16.55;;;4.35;;
35602;SDS011;21725;50.836;4.368;2023-02-01T14:06:46;10.02;;;2.92;;
35602;SDS011;21725;50.836;4.368;2023-02-01T14:09:46;11.40;;;3.85;;
35602;SDS011;21725;50.836;4.368;2023-02-01T14:12:48;11.70;;;4.32;;
35602;SDS011;21725;50.836;4.368;2023-02-01T14:19:33;9.13;;;3.00;;
35602;SDS011;21725;50.836;4.368;2023-02-01T14:22:33;11.70;;;3.30;;
35602;SDS011;21725;50.836;4.368;2023-02-01T14:25:34;15.27;;;3.25;;
35602;SDS011;21725;50.836;4.368;2023-02-01T14:28:36;10.77;;;3.92;;
35602;SDS011;21725;50.836;4.368;2023-02-01T14:35:06;18.25;;;4.05;;
35602;SDS011;21725;50.836;4.368;2023-02-01T14:38:16;14.18;;;3.53;;
35602;SDS011;21725;50.836;4.368;2023-02-01T14:41:25;8.35;;;3.10;;
35602;SDS011;21725;50.836;4.368;2023-02-01T14:44:33;14.43;;;3.55;;
35602;SDS011;21725;50.836;4.368;2023-02-01T14:47:35;9.43;;;3.10;;
35602;SDS011;21725;50.836;4.368;2023-02-01T14:50:36;19.35;;;3.58;;
35602;SDS011;21725;50.836;4.368;2023-02-01T14:53:46;12.45;;;4.45;;
35602;SDS011;21725;50.836;4.368;2023-02-01T14:56:47;13.50;;;3.83;;
35602;SDS011;21725;50.836;4.368;2023-02-01T14:59:49;16.95;;;4.45;;
35602;SDS011;21725;50.836;4.368;2023-02-01T15:03:14;12.13;;;2.97;;
35602;SDS011;21725;50.836;4.368;2023-02-01T15:06:30;15.18;;;4.10;;
35602;SDS011;21725;50.836;4.368;2023-02-01T15:09:49;13.32;;;3.95;;
35602;SDS011;21725;50.836;4.368;2023-02-01T15:12:51;11.40;;;4.45;;
35602;SDS011;21725;50.836;4.368;2023-02-01T15:16:12;20.42;;;4.50;;
35602;SDS011;21725;50.836;4.368;2023-02-01T15:19:14;17.90;;;4.53;;
35602;SDS011;21725;50.836;4.368;2023-02-01T15:22:17;14.15;;;5.35;;
35602;SDS011;21725;50.836;4.368;2023-02-01T15:25:26;17.65;;;3.90;;
35602;SDS011;21725;50.836;4.368;2023-02-01T15:28:40;17.30;;;3.17;;
35602;SDS011;21725;50.836;4.368;2023-02-01T15:31:45;12.48;;;5.50;;
35602;SDS011;21725;50.836;4.368;2023-02-01T15:34:49;16.27;;;4.28;;
35602;SDS011;21725;50.836;4.368;2023-02-01T15:37:50;17.83;;;5.28;;
35602;SDS011;21725;50.836;4.368;2023-02-01T15:44:04;11.13;;;3.25;;
35602;SDS011;21725;50.836;4.368;2023-02-01T15:47:16;15.05;;;4.75;;
35602;SDS011;21725;50.836;4.368;2023-02-01T15:50:20;20.17;;;3.78;;
35602;SDS011;21725;50.836;4.368;2023-02-01T15:53:23;14.95;;;3.90;;
35602;SDS011;21725;50.836;4.368;2023-02-01T15:56:35;19.85;;;5.50;;
35602;SDS011;21725;50.836;4.368;2023-02-01T15:59:43;20.17;;;5.87;;
35602;SDS011;21725;50.836;4.368;2023-02-01T16:02:51;13.27;;;3.05;;
35602;SDS011;21725;50.836;4.368;2023-02-01T16:05:57;24.30;;;6.00;;
35602;SDS011;21725;50.836;4.368;2023-02-01T16:12:03;21.73;;;4.57;;
35602;SDS011;21725;50.836;4.368;2023-02-01T16:15:19;10.45;;;3.88;;
35602;SDS011;21725;50.836;4.368;2023-02-01T16:18:20;15.20;;;3.78;;
35602;SDS011;21725;50.836;4.368;2023-02-01T16:21:21;17.25;;;3.72;;
35602;SDS011;21725;50.836;4.368;2023-02-01T16:24:22;18.38;;;4.32;;
35602;SDS011;21725;50.836;4.368;2023-02-01T16:27:25;20.15;;;6.53;;
35602;SDS011;21725;50.836;4.368;2023-02-01T16:30:26;15.30;;;3.70;;
35602;SDS011;21725;50.836;4.368;2023-02-01T16:33:27;18.67;;;4.55;;
35602;SDS011;21725;50.836;4.368;2023-02-01T16:36:28;19.75;;;4.60;;
35602;SDS011;21725;50.836;4.368;2023-02-01T16:39:29;15.32;;;5.40;;
35602;SDS011;21725;50.836;4.368;2023-02-01T16:42:33;18.52;;;6.00;;
35602;SDS011;21725;50.836;4.368;2023-02-01T16:45:33;21.27;;;4.93;;
35602;SDS011;21725;50.836;4.368;2023-02-01T16:48:38;15.48;;;5.45;;
35602;SDS011;21725;50.836;4.368;2023-02-01T16:51:41;21.98;;;6.32;;
35602;SDS011;21725;50.836;4.368;2023-02-01T16:54:42;19.35;;;4.32;;
35602;SDS011;21725;50.836;4.368;2023-02-01T16:57:44;16.80;;;4.55;;
35602;SDS011;21725;50.836;4.368;2023-02-01T17:22:58;19.30;;;5.15;;
35602;SDS011;21725;50.836;4.368;2023-02-01T17:25:59;22.27;;;8.15;;
35602;SDS011;21725;50.836;4.368;2023-02-01T17:29:01;14.00;;;4.95;;
35602;SDS011;21725;50.836;4.368;2023-02-01T17:32:02;17.80;;;6.47;;
35602;SDS011;21725;50.836;4.368;2023-02-01T17:35:03;22.25;;;7.57;;
35602;SDS011;21725;50.836;4.368;2023-02-01T17:38:11;25.58;;;6.93;;
35602;SDS011;21725;50.836;4.368;2023-02-01T17:41:14;21.75;;;6.30;;
35602;SDS011;21725;50.836;4.368;2023-02-01T17:44:15;19.05;;;6.05;;
35602;SDS011;21725;50.836;4.368;2023-02-01T17:47:16;25.30;;;6.25;;
35602;SDS011;21725;50.836;4.368;2023-02-01T17:50:16;24.20;;;6.85;;
35602;SDS011;21725;50.836;4.368;2023-02-01T17:53:17;22.85;;;5.82;;
35602;SDS011;21725;50.836;4.368;2023-02-01T17:56:20;24.08;;;6.53;;
35602;SDS011;21725;50.836;4.368;2023-02-01T17:59:22;21.17;;;5.82;;
35602;SDS011;21725;50.836;4.368;2023-02-01T18:02:26;17.27;;;5.65;;
35602;SDS011;21725;50.836;4.368;2023-02-01T18:05:38;15.63;;;5.20;;
35602;SDS011;21725;50.836;4.368;2023-02-01T18:08:40;23.08;;;6.03;;
35602;SDS011;21725;50.836;4.368;2023-02-01T18:11:44;21.48;;;5.57;;
35602;SDS011;21725;50.836;4.368;2023-02-01T18:14:54;17.77;;;5.22;;
35602;SDS011;21725;50.836;4.368;2023-02-01T18:17:56;22.75;;;5.63;;
35602;SDS011;21725;50.836;4.368;2023-02-01T18:20:58;21.95;;;5.63;;
35602;SDS011;21725;50.836;4.368;2023-02-01T18:24:02;18.13;;;5.40;;
35602;SDS011;21725;50.836;4.368;2023-02-01T18:27:03;27.80;;;8.00;;
35602;SDS011;21725;50.836;4.368;2023-02-01T18:30:04;22.38;;;5.50;;
35602;SDS011;21725;50.836;4.368;2023-02-01T18:33:10;22.70;;;6.20;;
35602;SDS011;21725;50.836;4.368;2023-02-01T18:36:16;31.65;;;7.93;;
35602;SDS011;21725;50.836;4.368;2023-02-01T18:39:18;24.98;;;6.30;;
35602;SDS011;21725;50.836;4.368;2023-02-01T18:42:18;21.40;;;5.55;;
35602;SDS011;21725;50.836;4.368;2023-02-01T18:45:39;20.90;;;6.55;;
35602;SDS011;21725;50.836;4.368;2023-02-01T18:48:46;25.75;;;8.93;;
35602;SDS011;21725;50.836;4.368;2023-02-01T18:51:49;28.02;;;8.00;;
35602;SDS011;21725;50.836;4.368;2023-02-01T18:54:52;21.80;;;7.35;;
35602;SDS011;21725;50.836;4.368;2023-02-01T18:57:52;30.85;;;9.02;;
35602;SDS011;21725;50.836;4.368;2023-02-01T19:00:54;28.33;;;10.50;;
35602;SDS011;21725;50.836;4.368;2023-02-01T19:03:57;25.27;;;8.65;;
35602;SDS011;21725;50.836;4.368;2023-02-01T19:06:59;28.20;;;8.68;;
35602;SDS011;21725;50.836;4.368;2023-02-01T19:09:59;24.08;;;6.95;;
35602;SDS011;21725;50.836;4.368;2023-02-01T19:13:00;27.35;;;7.63;;
35602;SDS011;21725;50.836;4.368;2023-02-01T19:16:07;27.10;;;8.23;;
35602;SDS011;21725;50.836;4.368;2023-02-01T19:19:12;28.13;;;7.20;;
35602;SDS011;21725;50.836;4.368;2023-02-01T19:22:12;18.17;;;6.35;;
35602;SDS011;21725;50.836;4.368;2023-02-01T19:25:14;23.13;;;8.15;;
35602;SDS011;21725;50.836;4.368;2023-02-01T19:28:17;19.42;;;7.10;;
35602;SDS011;21725;50.836;4.368;2023-02-01T19:31:17;24.50;;;8.48;;
35602;SDS011;21725;50.836;4.368;2023-02-01T19:34:18;21.52;;;6.90;;
35602;SDS011;21725;50.836;4.368;2023-02-01T19:37:19;35.20;;;9.45;;
35602;SDS011;21725;50.836;4.368;2023-02-01T19:40:20;32.33;;;9.02;;
35602;SDS011;21725;50.836;4.368;2023-02-01T19:43:22;26.90;;;8.20;;
35602;SDS011;21725;50.836;4.368;2023-02-01T19:46:23;23.92;;;6.93;;
35602;SDS011;21725;50.836;4.368;2023-02-01T19:49:25;30.33;;;8.50;;
35602;SDS011;21725;50.836;4.368;2023-02-01T19:52:26;33.28;;;8.65;;
35602;SDS011;21725;50.836;4.368;2023-02-01T19:55:27;27.05;;;6.75;;
35602;SDS011;21725;50.836;4.368;2023-02-01T19:58:28;29.45;;;7.03;;
35602;SDS011;21725;50.836;4.368;2023-02-01T20:01:29;24.80;;;7.30;;
35602;SDS011;21725;50.836;4.368;2023-02-01T20:04:31;24.38;;;7.95;;
35602;SDS011;21725;50.836;4.368;2023-02-01T20:07:31;30.73;;;9.88;;
35602;SDS011;21725;50.836;4.368;2023-02-01T20:10:32;26.30;;;9.10;;
35602;SDS011;21725;50.836;4.368;2023-02-01T20:13:33;25.80;;;8.13;;
35602;SDS011;21725;50.836;4.368;2023-02-01T20:16:35;25.95;;;8.32;;
35602;SDS011;21725;50.836;4.368;2023-02-01T20:19:36;24.02;;;7.55;;
35602;SDS011;21725;50.836;4.368;2023-02-01T20:22:36;24.88;;;8.27;;
35602;SDS011;21725;50.836;4.368;2023-02-01T20:25:37;22.60;;;6.38;;
35602;SDS011;21725;50.836;4.368;2023-02-01T20:28:38;29.90;;;6.88;;
35602;SDS011;21725;50.836;4.368;2023-02-01T20:31:39;25.95;;;7.45;;
35602;SDS011;21725;50.836;4.368;2023-02-01T20:34:40;23.08;;;7.32;;
35602;SDS011;21725;50.836;4.368;2023-02-01T20:37:41;32.88;;;7.55;;
35602;SDS011;21725;50.836;4.368;2023-02-01T20:40:42;27.08;;;7.60;;
35602;SDS011;21725;50.836;4.368;2023-02-01T20:43:42;28.55;;;8.40;;
35602;SDS011;21725;50.836;4.368;2023-02-01T20:46:43;18.92;;;7.25;;
35602;SDS011;21725;50.836;4.368;2023-02-01T20:49:44;30.33;;;7.78;;
35602;SDS011;21725;50.836;4.368;2023-02-01T20:52:45;23.15;;;7.45;;
35602;SDS011;21725;50.836;4.368;2023-02-01T20:55:46;20.67;;;5.78;;
35602;SDS011;21725;50.836;4.368;2023-02-01T20:58:49;27.90;;;7.78;;
35602;SDS011;21725;50.836;4.368;2023-02-01T21:01:50;30.85;;;9.00;;
35602;SDS011;21725;50.836;4.368;2023-02-01T21:04:51;26.67;;;7.80;;
35602;SDS011;21725;50.836;4.368;2023-02-01T21:07:52;24.52;;;7.65;;
35602;SDS011;21725;50.836;4.368;2023-02-01T21:11:04;25.80;;;6.65;;
35602;SDS011;21725;50.836;4.368;2023-02-01T21:14:07;27.05;;;7.47;;
35602;SDS011;21725;50.836;4.368;2023-02-01T21:17:07;26.02;;;8.15;;
35602;SDS011;21725;50.836;4.368;2023-02-01T21:20:08;23.73;;;6.13;;
35602;SDS011;21725;50.836;4.368;2023-02-01T21:23:10;35.33;;;8.85;;
35602;SDS011;21725;50.836;4.368;2023-02-01T21:26:12;21.63;;;6.13;;
35602;SDS011;21725;50.836;4.368;2023-02-01T21:29:18;26.80;;;6.47;;
35602;SDS011;21725;50.836;4.368;2023-02-01T21:32:19;24.52;;;6.78;;
35602;SDS011;21725;50.836;4.368;2023-02-01T21:35:19;23.80;;;6.13;;
35602;SDS011;21725;50.836;4.368;2023-02-01T21:38:20;25.27;;;7.22;;
35602;SDS011;21725;50.836;4.368;2023-02-01T21:41:22;21.80;;;5.80;;
35602;SDS011;21725;50.836;4.368;2023-02-01T21:44:42;24.27;;;6.13;;
35602;SDS011;21725;50.836;4.368;2023-02-01T21:47:46;20.25;;;7.88;;
35602;SDS011;21725;50.836;4.368;2023-02-01T21:50:47;24.30;;;9.18;;
35602;SDS011;21725;50.836;4.368;2023-02-01T21:53:48;29.02;;;7.30;;